Time;durP1;ratioP1;P1;durP2;ratioP2;P2;SDS_P1;SDS_P2;PMS_P1;PMS_P2;Temp;Humidity;BMP_temperature;BMP_pressure;BME280_temperature;BME280_humidity;BME280_pressure;Samples;Min_cycle;Max_cycle;Signal;HPM_P1;HPM_P2
2022/07/02 00:01:20;;;;;;;6.32;3.40;;;;;;;14.35;100.00;102121.84;5016770;28;20029;-50
2022/07/02 00:03:56;;;;;;;12.05;3.70;;;;;;;14.32;100.00;102121.31;5016189;28;20105;-49
2022/07/02 00:06:28;;;;;;;6.28;3.47;;;;;;;14.26;100.00;102122.78;5016551;28;20041;-47
2022/07/02 00:08:54;;;;;;;11.50;3.55;;;;;;;14.23;100.00;102124.94;4995664;28;20120;-47
2022/07/02 00:11:20;;;;;;;7.93;3.50;;;;;;;14.18;100.00;102125.38;5011042;28;20484;-50
2022/07/02 00:13:48;;;;;;;9.82;3.50;;;;;;;14.14;100.00;102122.16;5012678;28;20050;-47
2022/07/02 00:16:13;;;;;;;10.38;3.35;;;;;;;14.14;100.00;102119.47;5020424;28;20033;-45
2022/07/02 00:18:38;;;;;;;10.55;4.15;;;;;;;14.15;100.00;102118.50;5014800;28;20522;-47
2022/07/02 00:21:04;;;;;;;9.93;3.78;;;;;;;14.18;100.00;102120.00;5019833;28;20057;-48
2022/07/02 00:23:29;;;;;;;12.20;3.88;;;;;;;14.20;100.00;102114.50;5021653;28;20068;-47
2022/07/02 00:26:03;;;;;;;8.52;3.83;;;;;;;14.17;100.00;102119.19;5019978;28;20119;-47
2022/07/02 00:28:30;;;;;;;9.73;3.50;;;;;;;14.17;100.00;102119.19;5018684;28;20045;-50
2022/07/02 00:30:56;;;;;;;11.48;3.78;;;;;;;14.15;100.00;102123.00;5016832;28;20032;-48
2022/07/02 00:33:24;;;;;;;6.20;3.20;;;;;;;14.13;100.00;102122.31;5021071;28;20037;-47
2022/07/02 00:35:49;;;;;;;10.10;4.05;;;;;;;14.11;100.00;102125.16;5019506;28;20017;-50
2022/07/02 00:38:14;;;;;;;8.45;3.88;;;;;;;14.08;100.00;102125.47;5021055;28;20119;-49
2022/07/02 00:40:40;;;;;;;8.88;3.35;;;;;;;14.05;100.00;102122.22;5020340;28;20021;-49
2022/07/02 00:43:06;;;;;;;10.90;3.75;;;;;;;14.09;100.00;102124.47;5012997;28;20053;-49
2022/07/02 00:45:35;;;;;;;10.45;3.83;;;;;;;14.03;100.00;102127.75;5020545;28;20100;-49
2022/07/02 00:48:00;;;;;;;9.48;4.00;;;;;;;14.05;100.00;102122.22;5018761;28;20406;-47
2022/07/02 00:50:26;;;;;;;8.82;3.80;;;;;;;14.03;100.00;102119.69;4998703;28;20023;-46
2022/07/02 00:52:51;;;;;;;17.90;3.40;;;;;;;14.02;100.00;102120.72;5000517;28;20113;-45
2022/07/02 00:55:17;;;;;;;11.13;3.45;;;;;;;13.97;100.00;102112.28;5000169;28;20369;-47
2022/07/02 00:57:45;;;;;;;9.23;3.70;;;;;;;13.94;100.00;102109.88;5000332;28;20036;-48
2022/07/02 01:00:13;;;;;;;6.57;3.78;;;;;;;13.91;100.00;102100.28;4995814;28;20026;-45
2022/07/02 01:02:42;;;;;;;11.18;3.78;;;;;;;13.92;100.00;102109.19;5000531;28;20698;-47
2022/07/02 01:05:08;;;;;;;10.32;4.47;;;;;;;13.87;100.00;102112.31;4999431;28;20052;-45
2022/07/02 01:07:34;;;;;;;11.88;3.92;;;;;;;13.89;100.00;102112.19;4998958;28;20026;-47
2022/07/02 01:10:16;;;;;;;9.93;4.10;;;;;;;13.86;100.00;102113.31;5000058;28;20026;-47
2022/07/02 01:12:44;;;;;;;8.45;4.40;;;;;;;13.78;100.00;102100.66;5000632;28;20089;-47
2022/07/02 01:15:10;;;;;;;11.80;4.70;;;;;;;13.77;100.00;102107.00;4982370;28;20444;-46
2022/07/02 01:17:36;;;;;;;10.65;4.30;;;;;;;13.76;100.00;102097.28;5000848;28;20543;-46
2022/07/02 01:20:03;;;;;;;8.05;3.92;;;;;;;13.79;100.00;102104.19;4999786;28;20037;-50
2022/07/02 01:22:39;;;;;;;10.25;4.20;;;;;;;13.80;100.00;102106.72;4998105;28;20468;-47
2022/07/02 01:25:06;;;;;;;10.82;4.43;;;;;;;13.74;100.00;102106.47;4998833;28;20135;-48
2022/07/02 01:27:32;;;;;;;13.82;4.55;;;;;;;13.66;100.00;102109.06;5000451;28;20021;-46
2022/07/02 01:29:58;;;;;;;10.68;4.30;;;;;;;13.60;100.00;102105.97;4999680;28;20032;-46
2022/07/02 01:32:23;;;;;;;11.27;4.40;;;;;;;13.64;100.00;102106.53;4995431;28;20030;-48
2022/07/02 01:34:54;;;;;;;10.63;4.07;;;;;;;13.66;100.00;102107.22;4994768;28;20025;-47
2022/07/02 01:37:21;;;;;;;13.05;4.65;;;;;;;13.66;100.00;102104.53;4989895;28;20108;-48
2022/07/02 01:39:47;;;;;;;7.40;4.25;;;;;;;13.65;100.00;102112.75;4999667;28;20033;-45
2022/07/02 01:42:14;;;;;;;9.43;4.65;;;;;;;13.66;100.00;102103.69;4999122;28;20459;-46
2022/07/02 01:44:41;;;;;;;7.72;4.30;;;;;;;13.68;100.00;102112.44;4999119;28;20439;-47
2022/07/02 01:47:09;;;;;;;11.85;4.60;;;;;;;13.67;100.00;102111.59;4999144;28;20416;-48
2022/07/02 01:49:35;;;;;;;17.70;5.18;;;;;;;13.65;100.00;102118.13;4999250;28;20037;-46
2022/07/02 01:52:02;;;;;;;11.32;4.80;;;;;;;13.62;100.00;102117.41;4999903;28;20087;-48
2022/07/02 01:54:27;;;;;;;10.80;4.95;;;;;;;13.62;100.00;102113.88;4999641;28;20018;-47
2022/07/02 01:56:53;;;;;;;9.75;4.63;;;;;;;13.62;100.00;102108.53;4998474;28;20028;-48
2022/07/02 01:59:19;;;;;;;9.77;4.55;;;;;;;13.62;100.00;102111.22;4999042;28;20252;-48
2022/07/02 02:01:45;;;;;;;11.48;4.90;;;;;;;13.57;100.00;102108.13;4998798;28;20033;-46
2022/07/02 02:04:11;;;;;;;7.45;4.50;;;;;;;13.57;100.00;102110.81;4998386;28;20022;-46
2022/07/02 02:06:37;;;;;;;10.65;4.93;;;;;;;13.57;100.00;102108.97;4999111;28;20113;-49
2022/07/02 02:09:03;;;;;;;12.13;5.07;;;;;;;13.54;100.00;102092.31;4999880;28;20033;-47
2022/07/02 02:11:29;;;;;;;12.90;4.80;;;;;;;13.57;100.00;102100.91;4999152;28;20041;-49
2022/07/02 02:13:57;;;;;;;11.93;5.35;;;;;;;13.52;100.00;102102.38;4999436;28;20350;-50
2022/07/02 02:16:23;;;;;;;14.20;5.22;;;;;;;13.43;100.00;102098.75;4997448;28;20037;-48
2022/07/02 02:18:48;;;;;;;10.35;5.22;;;;;;;13.48;100.00;102090.25;4998384;28;20103;-46
2022/07/02 02:21:15;;;;;;;14.60;5.40;;;;;;;13.52;100.00;102094.31;4998744;28;20120;-46
2022/07/02 02:23:41;;;;;;;10.32;5.10;;;;;;;13.52;100.00;102094.31;4999158;28;20784;-48
2022/07/02 02:26:06;;;;;;;10.50;5.13;;;;;;;13.54;100.00;102095.00;4997556;28;20037;-48
2022/07/02 02:28:31;;;;;;;8.88;5.10;;;;;;;13.57;100.00;102100.91;4999708;28;20481;-47
2022/07/02 02:30:56;;;;;;;14.30;5.50;;;;;;;13.59;100.00;102098.94;4997744;28;20052;-46
2022/07/02 02:33:22;;;;;;;15.02;5.65;;;;;;;13.60;100.00;102102.47;4997702;28;20022;-44
2022/07/02 02:35:47;;;;;;;13.38;5.43;;;;;;;13.67;100.00;102103.53;4998868;28;20398;-47
2022/07/02 02:38:13;;;;;;;12.48;5.03;;;;;;;13.69;100.00;102103.41;4999223;28;20091;-46
2022/07/02 02:40:38;;;;;;;15.65;5.47;;;;;;;13.69;100.00;102103.41;4998095;28;20108;-46
2022/07/02 02:43:03;;;;;;;15.05;5.53;;;;;;;13.65;100.00;102107.38;4998733;28;20538;-45
2022/07/02 02:45:29;;;;;;;12.05;4.88;;;;;;;13.62;100.00;102098.63;4980835;28;20045;-48
2022/07/02 02:47:54;;;;;;;12.07;4.97;;;;;;;13.61;100.00;102104.13;4998366;28;20032;-45
2022/07/02 02:50:19;;;;;;;12.98;5.25;;;;;;;13.59;100.00;102106.13;4997693;28;20130;-48
2022/07/02 02:52:44;;;;;;;9.80;5.20;;;;;;;13.49;100.00;102100.81;4998828;28;20353;-48
2022/07/02 02:55:10;;;;;;;13.25;4.90;;;;;;;13.44;100.00;102111.16;4997873;28;20037;-50
2022/07/02 02:57:35;;;;;;;12.45;5.30;;;;;;;13.37;100.00;102116.28;4998505;28;20075;-48
2022/07/02 03:00:00;;;;;;;17.08;5.15;;;;;;;13.35;100.00;102110.22;4998398;28;20417;-46
2022/07/02 03:02:26;;;;;;;10.45;4.95;;;;;;;13.34;100.00;102110.34;4997543;28;20080;-47
2022/07/02 03:04:51;;;;;;;13.45;4.80;;;;;;;13.32;100.00;102110.50;4997939;28;20021;-48
2022/07/02 03:07:16;;;;;;;13.38;4.95;;;;;;;13.30;100.00;102115.13;4998074;28;20021;-47
2022/07/02 03:09:41;;;;;;;11.48;4.97;;;;;;;13.31;100.00;102119.53;4998089;28;20018;-48
2022/07/02 03:12:07;;;;;;;12.85;5.03;;;;;;;13.30;100.00;102119.66;4984744;28;20104;-48
2022/07/02 03:14:33;;;;;;;9.80;4.88;;;;;;;13.34;100.00;102113.03;4998382;28;20030;-47
2022/07/02 03:16:58;;;;;;;11.68;4.95;;;;;;;13.30;100.00;102112.47;4998599;28;20337;-49
2022/07/02 03:19:23;;;;;;;18.08;5.68;;;;;;;13.27;100.00;102111.91;4996469;28;20056;-48
2022/07/02 03:21:49;;;;;;;11.23;5.13;;;;;;;13.26;100.00;102121.81;4997516;28;20113;-46
2022/07/02 03:24:15;;;;;;;24.77;5.63;;;;;;;13.20;100.00;102120.56;4997806;28;20064;-45
2022/07/02 03:26:41;;;;;;;21.02;5.60;;;;;;;13.21;100.00;102132.13;4997699;28;20347;-46
2022/07/02 03:29:06;;;;;;;14.52;4.78;;;;;;;13.19;100.00;102134.97;4997540;28;20029;-46
2022/07/02 03:31:32;;;;;;;8.23;5.00;;;;;;;13.20;100.00;102138.47;5003696;28;20022;-47
2022/07/02 03:33:58;;;;;;;14.27;5.78;;;;;;;13.28;100.00;102138.59;5015078;28;20183;-48
2022/07/02 03:36:23;;;;;;;13.35;5.30;;;;;;;13.30;100.00;102141.97;5013849;28;20610;-46
2022/07/02 03:38:48;;;;;;;18.10;5.22;;;;;;;13.35;100.00;102139.72;5015077;28;20025;-46
2022/07/02 03:41:14;;;;;;;13.38;4.82;;;;;;;13.40;100.00;102148.16;5012637;28;20018;-48
2022/07/02 03:43:39;;;;;;;11.63;4.78;;;;;;;13.47;100.00;102142.22;5012552;28;20029;-45
2022/07/02 03:46:05;;;;;;;11.57;4.35;;;;;;;13.48;100.00;102144.75;5016295;28;20518;-49
2022/07/02 03:48:31;;;;;;;15.43;5.03;;;;;;;13.48;100.00;102151.97;5020406;28;20292;-48
2022/07/02 03:50:56;;;;;;;11.90;4.75;;;;;;;13.46;100.00;102143.22;5019842;28;20029;-44
2022/07/02 03:53:21;;;;;;;9.90;4.82;;;;;;;13.40;100.00;102134.75;5018711;28;20444;-48
2022/07/02 03:55:47;;;;;;;11.50;4.30;;;;;;;13.39;100.00;102138.44;5018991;28;20469;-48
2022/07/02 03:58:12;;;;;;;10.98;4.78;;;;;;;13.35;100.00;102134.34;5019433;28;20108;-47
2022/07/02 04:00:38;;;;;;;9.10;4.15;;;;;;;13.32;100.00;102131.97;5017108;28;20030;-48
2022/07/02 04:03:03;;;;;;;9.63;4.43;;;;;;;13.32;100.00;102141.84;5018948;28;20091;-50
2022/07/02 04:05:28;;;;;;;11.52;4.45;;;;;;;13.34;100.00;102146.09;5014756;28;20065;-46
2022/07/02 04:07:54;;;;;;;8.25;4.13;;;;;;;13.41;100.00;102149.03;5016167;28;20472;-46
2022/07/02 04:10:20;;;;;;;11.50;4.03;;;;;;;13.49;100.00;102151.81;5017598;28;20025;-49
2022/07/02 04:12:45;;;;;;;13.40;4.60;;;;;;;13.61;100.00;102150.63;5020599;28;20602;-45
2022/07/02 04:15:11;;;;;;;11.30;4.32;;;;;;;13.66;100.00;102144.78;5019842;28;20025;-46
2022/07/02 04:17:36;;;;;;;13.57;4.28;;;;;;;13.73;100.00;102143.22;5018782;28;20079;-46
2022/07/02 04:20:01;;;;;;;9.90;4.25;;;;;;;13.72;100.00;102138.84;5017611;28;20506;-48
2022/07/02 04:22:28;;;;;;;8.02;3.75;;;;;;;13.67;100.00;102146.50;5016176;28;20053;-49
2022/07/02 04:24:53;;;;;;;8.15;4.20;;;;;;;13.63;100.00;102142.44;5014579;28;20382;-45
2022/07/02 04:27:19;;;;;;;11.70;3.97;;;;;;;13.63;100.00;102145.13;4987658;28;20038;-49
2022/07/02 04:29:44;;;;;;;11.63;4.07;;;;;;;13.62;100.00;102144.25;5000885;28;20022;-46
2022/07/02 04:32:09;;;;;;;7.65;3.40;;;;;;;13.67;100.00;102146.50;5000864;28;20017;-45
2022/07/02 04:34:35;;;;;;;10.88;3.88;;;;;;;13.72;100.00;102154.94;5000192;28;20515;-48
2022/07/02 04:37:00;;;;;;;10.57;3.65;;;;;;;13.80;100.00;102143.47;4996635;28;20496;-46
2022/07/02 04:39:26;;;;;;;9.98;3.80;;;;;;;13.89;100.00;102155.16;5000440;28;20040;-50
2022/07/02 04:41:51;;;;;;;7.18;3.42;;;;;;;13.96;100.00;102148.16;4999660;28;20162;-46
2022/07/02 04:44:17;;;;;;;13.77;3.50;;;;;;;14.07;100.00;102147.09;4999806;28;20360;-48
2022/07/02 04:46:42;;;;;;;8.98;3.30;;;;;;;14.13;100.00;102150.03;5000279;28;20072;-47
2022/07/02 04:49:08;;;;;;;8.55;3.42;;;;;;;14.18;100.00;102149.56;4999622;28;20062;-45
2022/07/02 04:51:33;;;;;;;14.75;3.38;;;;;;;14.23;100.00;102152.66;4999702;28;20026;-45
2022/07/02 04:53:58;;;;;;;8.75;3.40;;;;;;;14.26;100.00;102149.66;5001136;28;20469;-45
2022/07/02 04:56:24;;;;;;;9.18;3.22;;;;;;;14.30;100.00;102144.81;4999167;28;20025;-44
2022/07/02 04:58:50;;;;;;;8.48;3.03;;;;;;;14.34;100.00;102157.81;4999864;28;20517;-48
2022/07/02 05:01:16;;;;;;;9.10;3.03;;;;;;;14.40;100.00;102153.63;4999865;28;20235;-44
2022/07/02 05:03:41;;;;;;;6.57;2.97;;;;;;;14.47;100.00;102157.41;4999209;28;20503;-46
2022/07/02 05:06:06;;;;;;;9.05;3.10;;;;;;;14.57;100.00;102148.41;4999956;28;20117;-44
2022/07/02 05:08:32;;;;;;;11.23;3.00;;;;;;;14.61;100.00;102147.97;4982975;28;20125;-44
2022/07/02 05:10:58;;;;;;;7.68;2.63;;;;;;;14.69;100.00;102147.19;4999510;28;20435;-44
2022/07/02 05:13:23;;;;;;;7.93;2.83;;;;;;;14.73;100.00;102148.56;5000142;28;20175;-46
2022/07/02 05:15:50;;;;;;;6.43;2.42;;;;;;;14.82;100.00;102147.63;4999201;28;20033;-45
2022/07/02 05:18:15;;;;;;;6.47;3.00;;;;;;;14.90;100.00;102155.75;4999566;28;20168;-44
2022/07/02 05:20:40;;;;;;;8.90;2.85;;;;;;;14.94;100.00;102156.28;5000109;28;20548;-45
2022/07/02 05:23:06;;;;;;;6.07;3.03;;;;;;;14.96;100.00;102150.75;4994929;28;20022;-44
2022/07/02 05:25:31;;;;;;;8.95;3.40;;;;;;;15.06;100.00;102148.81;4981717;28;20075;-45
2022/07/02 05:27:57;;;;;;;9.27;2.80;;;;;;;15.15;99.81;102152.38;5000070;28;20175;-45
2022/07/02 05:30:22;;;;;;;6.60;2.50;;;;;;;15.26;99.77;102152.13;4999395;28;20051;-45
2022/07/02 05:32:47;;;;;;;7.32;2.25;;;;;;;15.32;99.38;102153.31;4999352;28;20022;-45
2022/07/02 05:35:13;;;;;;;8.15;2.47;;;;;;;15.29;100.00;102157.16;4998797;28;20163;-45
2022/07/02 05:37:38;;;;;;;7.05;2.45;;;;;;;15.24;98.30;102154.09;4989208;28;20075;-44
2022/07/02 05:40:04;;;;;;;8.95;2.20;;;;;;;15.19;99.49;102159.97;5017850;28;20025;-44
2022/07/02 05:42:29;;;;;;;13.80;2.55;;;;;;;15.17;97.66;102163.81;5018754;28;20026;-44
2022/07/02 05:44:55;;;;;;;10.45;2.63;;;;;;;15.11;98.68;102163.47;4998766;28;20030;-48
2022/07/02 05:47:20;;;;;;;8.88;2.70;;;;;;;15.16;99.88;102167.53;4999005;28;20105;-44
2022/07/02 05:49:45;;;;;;;13.88;2.97;;;;;;;15.18;99.68;102160.97;4997796;28;20041;-47
2022/07/02 05:52:11;;;;;;;8.75;2.70;;;;;;;15.24;99.36;102176.50;4980847;28;20014;-47
2022/07/02 05:54:36;;;;;;;9.88;2.33;;;;;;;15.26;98.18;102169.09;4998782;28;20472;-46
2022/07/02 05:57:01;;;;;;;7.50;2.45;;;;;;;15.30;99.66;102167.75;4999535;28;20113;-49
2022/07/02 05:59:27;;;;;;;6.88;2.50;;;;;;;15.40;99.34;102174.91;4989617;28;20083;-44
2022/07/02 06:01:52;;;;;;;8.20;2.67;;;;;;;15.46;97.79;102172.41;4994745;28;20156;-46
2022/07/02 06:04:17;;;;;;;7.53;2.53;;;;;;;15.54;97.99;102174.28;4998072;28;20117;-50
2022/07/02 06:09:26;;;;;;;7.97;2.40;;;;;;;15.75;95.20;102178.41;4998854;28;20599;-48
2022/07/02 06:11:52;;;;;;;7.40;2.20;;;;;;;15.80;95.09;102176.09;4971285;28;20038;-46
2022/07/02 06:14:17;;;;;;;9.80;2.05;;;;;;;15.92;94.72;102174.81;4998068;28;20440;-46
2022/07/02 06:16:42;;;;;;;7.18;2.20;;;;;;;16.00;94.37;102166.75;4998628;28;20033;-46
2022/07/02 06:19:08;;;;;;;7.28;2.30;;;;;;;16.13;92.90;102173.50;4997284;28;20025;-45
2022/07/02 06:21:34;;;;;;;9.98;2.33;;;;;;;16.22;93.23;102176.06;4998504;28;20044;-50
2022/07/02 06:23:59;;;;;;;7.25;1.90;;;;;;;16.35;92.92;102174.72;4994756;28;20057;-48
2022/07/02 06:26:25;;;;;;;7.47;1.80;;;;;;;16.52;90.44;102180.97;4997775;28;20422;-49
2022/07/02 06:28:50;;;;;;;6.00;2.05;;;;;;;16.63;89.91;102174.41;4999173;28;20109;-48
2022/07/02 06:31:15;;;;;;;5.85;1.80;;;;;;;16.75;88.36;102186.53;4997824;28;20034;-50
2022/07/02 06:33:41;;;;;;;7.82;1.70;;;;;;;16.85;84.84;102189.09;4997749;28;20057;-44
2022/07/02 06:36:10;;;;;;;6.75;1.88;;;;;;;16.90;84.03;102192.13;4997929;28;20025;-50
2022/07/02 06:38:37;;;;;;;5.10;1.70;;;;;;;16.98;83.24;102194.81;4998726;28;20048;-49
2022/07/02 06:42:18;;;;;;;7.13;1.80;;;;;;;17.10;82.49;102200.72;4998705;28;20778;-50
2022/07/02 06:43:48;;;;;;;5.22;1.70;;;;;;;17.20;76.83;102197.81;4998669;28;20181;-46
2022/07/02 06:46:13;;;;;;;6.97;1.95;;;;;;;17.15;80.16;102195.63;4997344;28;20481;-45
2022/07/02 06:48:38;;;;;;;5.30;2.10;;;;;;;17.18;82.18;102197.16;4998251;28;20105;-48
2022/07/02 06:51:04;;;;;;;4.40;1.80;;;;;;;17.22;81.67;102198.50;4997444;28;20026;-47
2022/07/02 06:53:29;;;;;;;7.93;1.80;;;;;;;17.27;82.32;102196.13;4981481;28;20041;-51
2022/07/02 06:55:54;;;;;;;8.10;1.92;;;;;;;17.27;81.79;102196.13;4997713;28;20026;-47
2022/07/02 06:58:19;;;;;;;5.60;2.10;;;;;;;17.29;81.24;102188.69;4998169;28;20258;-47
2022/07/02 07:00:45;;;;;;;5.80;1.63;;;;;;;17.37;80.44;102174.34;5002681;28;20428;-44
2022/07/02 07:03:10;;;;;;;6.32;1.70;;;;;;;17.58;80.12;102184.53;5005015;28;20034;-47
2022/07/02 07:05:36;;;;;;;5.25;1.95;;;;;;;17.81;79.67;102181.91;4997755;28;20432;-46
2022/07/02 07:08:02;;;;;;;4.57;1.50;;;;;;;17.75;80.88;102193.41;4998471;28;20045;-45
2022/07/02 07:10:27;;;;;;;4.35;1.60;;;;;;;17.78;79.33;102184.97;4996730;28;20433;-47
2022/07/02 07:12:53;;;;;;;4.45;1.60;;;;;;;17.90;75.66;102186.28;5014602;28;20121;-48
2022/07/02 07:15:18;;;;;;;4.70;1.67;;;;;;;18.01;74.86;102185.91;5014850;28;20488;-45
2022/07/02 07:17:43;;;;;;;6.40;1.40;;;;;;;18.19;77.58;102190.19;4997015;28;20516;-49
2022/07/02 07:20:16;;;;;;;6.05;1.70;;;;;;;18.22;72.38;102182.53;4979218;28;20022;-46
2022/07/02 07:22:42;;;;;;;6.30;1.35;;;;;;;18.40;72.56;102197.66;4992481;28;20341;-47
2022/07/02 07:25:07;;;;;;;3.15;1.30;;;;;;;18.54;71.40;102193.34;5006047;28;20056;-44
2022/07/02 07:27:32;;;;;;;5.35;1.30;;;;;;;18.63;67.46;102192.22;5001193;28;20021;-44
2022/07/02 07:29:58;;;;;;;2.40;0.90;;;;;;;18.67;64.55;102190.00;4979851;28;20025;-47
2022/07/02 07:32:23;;;;;;;6.13;1.42;;;;;;;18.72;65.83;102196.56;5003030;28;20099;-49
2022/07/02 07:34:48;;;;;;;2.97;1.00;;;;;;;18.76;65.70;102191.63;4996215;28;20420;-46
2022/07/02 07:37:14;;;;;;;6.80;0.93;;;;;;;18.90;67.18;102182.72;4997029;28;20052;-46
2022/07/02 07:39:40;;;;;;;4.25;1.10;;;;;;;18.97;63.89;102186.38;4997274;28;20540;-47
2022/07/02 07:42:05;;;;;;;7.30;0.90;;;;;;;19.08;59.29;102187.81;4996516;28;20014;-46
2022/07/02 07:44:32;;;;;;;3.33;0.80;;;;;;;19.13;57.51;102196.22;4997449;28;20555;-47
2022/07/02 07:46:57;;;;;;;4.95;0.80;;;;;;;19.21;59.78;102195.28;4997395;28;20026;-48
2022/07/02 07:49:23;;;;;;;5.50;0.93;;;;;;;19.24;57.84;102191.38;4995922;28;20100;-45
2022/07/02 07:51:48;;;;;;;3.92;0.95;;;;;;;19.38;62.23;102190.50;4996620;28;20220;-47
2022/07/02 07:54:13;;;;;;;1.80;0.80;;;;;;;19.56;62.90;102190.97;4997386;28;20088;-50
2022/07/02 07:56:41;;;;;;;5.35;1.10;;;;;;;19.66;60.27;102188.00;4996509;28;20096;-46
2022/07/02 07:59:07;;;;;;;3.50;0.93;;;;;;;19.69;58.95;102193.03;4997354;28;20029;-46
2022/07/02 08:01:32;;;;;;;4.95;0.88;;;;;;;19.64;57.39;102186.50;4997716;28;20054;-47
2022/07/02 08:03:57;;;;;;;6.95;0.90;;;;;;;19.75;60.75;102178.78;4978489;28;20033;-46
2022/07/02 08:06:22;;;;;;;4.40;0.93;;;;;;;19.96;65.58;102184.41;4997069;28;20033;-45
2022/07/02 08:08:48;;;;;;;6.85;1.00;;;;;;;20.11;60.75;102186.06;4997405;28;20141;-46
2022/07/02 08:11:13;;;;;;;6.22;1.00;;;;;;;20.19;60.36;102189.69;4996591;28;20120;-48
2022/07/02 08:13:38;;;;;;;6.13;1.10;;;;;;;20.17;59.87;102186.34;4996991;28;20040;-49
2022/07/02 08:16:04;;;;;;;6.25;1.02;;;;;;;20.24;59.96;102181.81;5005402;28;20103;-46
2022/07/02 08:18:29;;;;;;;4.25;0.88;;;;;;;20.39;61.72;102182.59;5015429;28;20487;-49
2022/07/02 08:20:55;;;;;;;2.40;0.90;;;;;;;20.56;61.07;102183.16;4998757;28;20159;-49
2022/07/02 08:23:20;;;;;;;2.35;0.90;;;;;;;20.74;60.41;102190.03;5001247;28;20120;-46
2022/07/02 08:25:46;;;;;;;3.30;1.10;;;;;;;20.61;56.68;102179.88;4999652;28;20026;-45
2022/07/02 08:28:11;;;;;;;4.25;0.90;;;;;;;20.58;58.16;102174.84;4979634;28;20117;-45
2022/07/02 08:30:36;;;;;;;4.13;1.25;;;;;;;20.68;56.66;102173.47;5007091;28;20484;-46
2022/07/02 08:33:02;;;;;;;2.83;1.10;;;;;;;20.76;58.32;102172.50;5003268;28;20072;-46
2022/07/02 08:35:28;;;;;;;3.22;1.10;;;;;;;20.63;57.49;102172.41;5020004;28;20394;-49
2022/07/02 08:37:53;;;;;;;6.82;1.27;;;;;;;20.62;57.81;102168.84;5015152;28;20033;-46
2022/07/02 08:40:24;;;;;;;3.67;0.77;;;;;;;20.74;57.99;102171.00;5016846;28;20025;-48
2022/07/02 08:42:52;;;;;;;6.03;1.23;;;;;;;20.81;60.34;102174.66;4995928;28;20029;-45
2022/07/02 08:45:20;;;;;;;2.72;1.00;;;;;;;20.93;58.22;102166.81;5018327;28;20021;-47
2022/07/02 08:47:46;;;;;;;3.72;1.27;;;;;;;20.95;57.45;102160.13;5017692;28;20036;-47
2022/07/02 08:50:13;;;;;;;4.95;1.20;;;;;;;20.99;57.29;102164.09;5019048;28;20465;-46
2022/07/02 08:52:39;;;;;;;3.92;1.10;;;;;;;21.07;57.32;102162.28;5019125;28;20296;-46
2022/07/02 08:55:05;;;;;;;3.83;1.00;;;;;;;21.18;55.26;102153.56;5015388;28;20569;-47
2022/07/02 08:57:32;;;;;;;4.88;1.30;;;;;;;21.20;54.74;102163.22;5016942;28;20254;-46
2022/07/02 08:59:58;;;;;;;6.78;1.20;;;;;;;21.26;55.82;102158.84;5017686;28;20433;-48
2022/07/02 09:02:25;;;;;;;4.07;1.10;;;;;;;21.27;55.59;102159.72;5015245;28;20021;-48
2022/07/02 09:04:51;;;;;;;7.47;1.00;;;;;;;21.40;57.07;102147.03;5017603;28;20540;-47
2022/07/02 09:07:17;;;;;;;8.13;1.50;;;;;;;21.58;59.25;102146.50;5016369;28;20025;-51
2022/07/02 09:09:44;;;;;;;4.88;1.38;;;;;;;21.77;56.60;102146.78;5017753;28;20151;-45
2022/07/02 09:12:14;;;;;;;5.95;1.20;;;;;;;21.80;55.28;102143.66;5002584;28;20065;-50
2022/07/02 09:14:41;;;;;;;4.23;1.00;;;;;;;21.98;56.05;102141.19;4999783;28;20033;-48
2022/07/02 09:17:08;;;;;;;6.30;1.45;;;;;;;22.19;54.28;102142.06;4999930;28;20289;-48
2022/07/02 09:19:34;;;;;;;7.15;1.40;;;;;;;22.25;51.97;102143.97;4999706;28;20112;-47
2022/07/02 09:22:00;;;;;;;6.15;1.42;;;;;;;22.28;50.71;102137.28;4999751;28;20037;-46
2022/07/02 09:24:34;;;;;;;5.53;1.40;;;;;;;22.31;54.24;102136.88;4977972;28;20042;-49
2022/07/02 09:27:07;;;;;;;5.57;1.00;;;;;;;22.47;53.51;102131.03;4980485;28;20729;-47
2022/07/02 09:29:47;;;;;;;3.65;1.02;;;;;;;22.55;51.88;102143.59;4980063;28;20498;-47
2022/07/02 09:32:14;;;;;;;5.22;1.20;;;;;;;22.28;51.51;102131.84;4979174;28;20022;-50
2022/07/02 09:34:44;;;;;;;5.55;1.08;;;;;;;22.26;52.16;102131.19;4978322;28;20373;-46
2022/07/02 09:37:18;;;;;;;6.88;1.20;;;;;;;22.45;52.12;102127.66;4979533;28;20030;-47
2022/07/02 09:39:46;;;;;;;7.78;1.38;;;;;;;22.51;52.08;102128.72;4978376;28;20504;-47
2022/07/02 09:42:22;;;;;;;3.92;1.20;;;;;;;22.49;51.42;102128.13;4990909;28;20029;-49
2022/07/02 09:44:47;;;;;;;5.95;1.38;;;;;;;22.47;52.31;102119.28;4995960;28;20067;-47
2022/07/02 09:47:13;;;;;;;4.20;1.50;;;;;;;22.56;52.63;102119.94;4995701;28;20481;-45
2022/07/02 09:49:50;;;;;;;6.50;1.20;;;;;;;22.62;52.08;102116.38;4983141;28;20033;-47
2022/07/02 09:52:19;;;;;;;4.90;1.27;;;;;;;22.57;51.47;102105.25;4979170;28;20022;-46
2022/07/02 09:54:45;;;;;;;4.47;1.10;;;;;;;22.63;51.14;102097.09;4977823;28;20050;-48
2022/07/02 09:57:12;;;;;;;5.65;1.55;;;;;;;22.59;49.35;102093.13;4979395;28;20022;-46
2022/07/02 09:59:39;;;;;;;4.70;1.30;;;;;;;22.73;50.98;102108.38;4978144;28;20030;-47
2022/07/02 10:02:05;;;;;;;5.60;1.15;;;;;;;22.76;49.63;102096.25;4979365;28;20022;-47
2022/07/02 10:04:32;;;;;;;4.18;1.15;;;;;;;22.88;49.73;102112.78;4979444;28;20148;-47
2022/07/02 10:07:00;;;;;;;5.30;1.27;;;;;;;22.92;48.59;102101.22;4979413;28;20128;-46
2022/07/02 10:09:26;;;;;;;4.22;1.10;;;;;;;22.73;50.45;102102.13;4979645;28;20030;-45
2022/07/02 10:11:52;;;;;;;4.50;1.20;;;;;;;22.84;52.46;102108.78;4978771;28;20029;-48
2022/07/02 10:14:23;;;;;;;4.78;1.25;;;;;;;23.01;53.26;102096.38;4978679;28;20038;-49
2022/07/02 10:16:50;;;;;;;6.05;1.40;;;;;;;23.12;49.03;102099.56;4993705;28;20028;-46
2022/07/02 10:19:17;;;;;;;4.55;1.30;;;;;;;23.20;49.72;102089.25;4995626;28;20029;-44
2022/07/02 10:21:44;;;;;;;6.43;1.60;;;;;;;23.43;50.68;102087.88;4987806;28;20093;-46
2022/07/02 10:24:10;;;;;;;8.00;1.75;;;;;;;23.34;50.13;102079.13;4997957;28;20428;-49
2022/07/02 10:26:37;;;;;;;5.18;1.38;;;;;;;23.48;50.40;102087.25;5015896;28;20037;-47
2022/07/02 10:29:03;;;;;;;4.47;1.00;;;;;;;23.90;47.08;102083.06;5015809;28;20324;-47
2022/07/02 10:31:34;;;;;;;7.20;0.98;;;;;;;24.46;47.53;102075.06;5017315;28;20352;-45
2022/07/02 10:34:35;;;;;;;6.50;1.30;;;;;;;24.68;45.93;102078.25;5017498;28;20017;-45
2022/07/02 10:37:00;;;;;;;2.60;1.02;;;;;;;24.62;43.77;102073.66;4974393;28;20588;-47
2022/07/02 10:39:25;;;;;;;7.53;1.42;;;;;;;24.40;44.10;102076.78;4998506;28;20139;-47
2022/07/02 10:41:51;;;;;;;2.63;1.00;;;;;;;24.16;45.65;102073.00;4997153;28;20083;-47
2022/07/02 10:44:16;;;;;;;9.15;1.38;;;;;;;24.08;45.26;102073.25;5003893;28;20333;-48
2022/07/02 10:46:46;;;;;;;5.82;1.20;;;;;;;24.02;45.56;102073.09;5013688;28;20104;-49
2022/07/02 10:49:12;;;;;;;3.38;1.02;;;;;;;23.88;43.86;102076.97;5003883;28;20511;-48
2022/07/02 10:51:38;;;;;;;3.42;1.20;;;;;;;24.19;42.37;102072.56;4996513;28;20063;-47
2022/07/02 10:54:06;;;;;;;5.35;1.02;;;;;;;24.22;41.73;102074.84;4998291;28;20040;-49
2022/07/02 10:56:44;;;;;;;3.72;1.17;;;;;;;24.65;44.24;102078.69;4997955;28;20342;-49
2022/07/02 10:59:34;;;;;;;2.92;1.00;;;;;;;24.51;44.56;102077.97;4997372;28;20057;-45
2022/07/02 11:02:07;;;;;;;5.43;1.23;;;;;;;24.33;43.10;102071.38;4997765;28;20080;-47
2022/07/02 11:04:33;;;;;;;3.92;0.75;;;;;;;24.60;43.17;102067.59;4998743;28;20050;-47
2022/07/02 11:07:05;;;;;;;3.22;1.00;;;;;;;24.49;43.61;102072.72;4997947;28;20029;-44
2022/07/02 11:09:31;;;;;;;4.70;1.13;;;;;;;24.00;43.73;102066.19;4998379;28;20057;-47
2022/07/02 11:12:00;;;;;;;8.55;1.20;;;;;;;24.10;46.16;102072.00;4996578;28;20104;-45
2022/07/02 11:14:26;;;;;;;4.25;1.10;;;;;;;24.30;45.26;102073.72;4998820;28;20018;-45
2022/07/02 11:16:53;;;;;;;5.88;0.90;;;;;;;24.29;46.02;102063.88;5015227;28;20452;-49
2022/07/02 11:19:20;;;;;;;5.95;1.20;;;;;;;23.87;46.39;102064.38;4979840;28;20049;-48